»·PEaware :: N360AS KAVQ-KBXK

N360AS :: KAVQ-KBXK

FLIGHT INFORMATION

Flight Status: Arrived
Operator: Privately registered:
United States
More flights under this callsign
Pilot: Chuck O. (4337)
Aircraft: Unknown
(LEG2)
More flights by this aircraft type
Origin: KAVQ Marana Northwest Regl
United States
Destination: KBXK Buckeye Mun
United States
More flights between these airports :: More routes between these airports
Route: FOUTZ GBN TGOLD
File this flight plan on PilotEdge
Remarks: AZ ABC LEG 1
Altitude:
(Current/Filed)
8,500ft
Speed:
(Current/Filed)
250kts
Departed: 04-Jan-21 01:20 PM
Arrived: 04-Jan-21 01:51 PM
Distance/Time
Traveled:
96nm/0:30
Distance/Time
To Go:
Arrived

Flight Plot

Page will automatically refresh every two minutes.

Flight plan parsing failed; only flown route is shown


Map Options




Map Legend


Flown Route
Filed Route
Departure Airport
Arrival Airport
Navaid (VOR, NDB)
Fix

Horizontal Profiles

Position Reports

Time Latitude Longitude Heading Altitude Ground
Speed
04-Jan-21 13:03 32.406125 -111.218114 137 2023ft 0kts
04-Jan-21 13:04 32.406125 -111.218114 137 2023ft 0kts
04-Jan-21 13:05 32.406125 -111.218114 137 2023ft 0kts
04-Jan-21 13:06 32.406125 -111.218114 137 2023ft 0kts
04-Jan-21 13:07 32.406125 -111.218114 137 2023ft 0kts
04-Jan-21 13:08 32.406125 -111.218114 137 2023ft 0kts
04-Jan-21 13:09 32.406125 -111.218114 137 2023ft 0kts
04-Jan-21 13:10 32.406125 -111.218114 137 2023ft 0kts
04-Jan-21 13:11 32.406125 -111.218114 137 2023ft 0kts
04-Jan-21 13:12 32.406125 -111.218114 137 2023ft 0kts
04-Jan-21 13:13 32.406125 -111.218114 137 2023ft 0kts
04-Jan-21 13:14 32.406125 -111.218114 137 2023ft 0kts
04-Jan-21 13:15 32.406106 -111.218087 116 2023ft 0kts
04-Jan-21 13:16 32.407337 -111.217002 12 2023ft 6kts
04-Jan-21 13:17 32.410272 -111.213571 35 2026ft 1kts
04-Jan-21 13:18 32.410752 -111.213813 291 2026ft 5kts
04-Jan-21 13:19 32.397302 -111.229183 215 2318ft 127kts
04-Jan-21 13:20 32.363119 -111.259758 219 3115ft 190kts
04-Jan-21 13:21 32.359765 -111.319633 287 4382ft 207kts
04-Jan-21 13:22 32.380143 -111.382506 289 6037ft 200kts
04-Jan-21 13:23 32.399614 -111.441932 288 7728ft 189kts
04-Jan-21 13:24 32.419313 -111.502223 289 8501ft 221kts
04-Jan-21 13:25 32.443235 -111.575366 289 8501ft 251kts
04-Jan-21 13:26 32.468915 -111.654179 289 8500ft 260kts
04-Jan-21 13:27 32.500240 -111.731944 298 8499ft 263kts
04-Jan-21 13:28 32.536955 -111.807073 298 8499ft 264kts
04-Jan-21 13:29 32.573864 -111.882572 298 8494ft 264kts
04-Jan-21 13:30 32.610686 -111.958045 298 8479ft 265kts
04-Jan-21 13:31 32.647685 -112.034066 298 8465ft 265kts
04-Jan-21 13:32 32.684196 -112.109191 298 8455ft 264kts
04-Jan-21 13:33 32.721114 -112.185346 298 8454ft 265kts
04-Jan-21 13:34 32.757595 -112.260765 298 8454ft 263kts
04-Jan-21 13:35 32.793946 -112.336063 298 8482ft 262kts
04-Jan-21 13:36 32.830101 -112.411116 298 8482ft 262kts
04-Jan-21 13:37 32.866421 -112.486663 298 8482ft 263kts
04-Jan-21 13:38 32.902565 -112.562001 298 8482ft 262kts
04-Jan-21 13:39 32.938771 -112.637632 298 8482ft 262kts
04-Jan-21 13:40 32.995916 -112.685192 346 8485ft 267kts
04-Jan-21 13:41 33.068835 -112.705375 346 8199ft 278kts
04-Jan-21 13:42 33.145076 -112.718039 5 7003ft 273kts
04-Jan-21 13:43 33.219395 -112.709454 6 5792ft 264kts
04-Jan-21 13:44 33.291673 -112.701104 6 4583ft 254kts
04-Jan-21 13:45 33.360585 -112.693478 1 3345ft 247kts
04-Jan-21 13:46 33.411913 -112.698424 14 1861ft 123kts
04-Jan-21 13:47 33.443844 -112.703569 343 1736ft 124kts
04-Jan-21 13:48 33.453927 -112.685394 170 1874ft 111kts
04-Jan-21 13:49 33.425729 -112.686106 177 1014ft 61kts
04-Jan-21 13:50 33.423960 -112.685699 46 1011ft 0kts
04-Jan-21 13:51 33.424363 -112.685240 47 1011ft 6kts
04-Jan-21 13:52 33.424444 -112.684974 113 1012ft 4kts
04-Jan-21 13:53 33.421286 -112.684976 183 1005ft 11kts
04-Jan-21 13:54 33.420598 -112.683932 89 1004ft 0kts
04-Jan-21 13:55 33.420598 -112.683932 89 1004ft 0kts
04-Jan-21 13:56 33.420598 -112.683932 89 1004ft 0kts

Navigation Log

Ident Type
Flight plan parsing failed, navigation log unavailable